Time;durP1;ratioP1;P1;durP2;ratioP2;P2;SDS_P1;SDS_P2;PMS_P1;PMS_P2;Temp;Humidity;BMP_temperature;BMP_pressure;BME280_temperature;BME280_humidity;BME280_pressure;Samples;Min_cycle;Max_cycle;Signal;HPM_P1;HPM_P2
2023/10/13 00:02:02;;;;;;;5.50;4.90;;;17.70;99.90;;;;;;5016413;28;20890;-74
2023/10/13 00:04:29;;;;;;;4.90;4.50;;;17.70;99.90;;;;;;5016498;28;20439;-75
2023/10/13 00:06:58;;;;;;;6.07;4.70;;;17.60;99.90;;;;;;5016039;28;20462;-76
2023/10/13 00:09:25;;;;;;;4.60;4.13;;;17.70;99.90;;;;;;5014937;28;20442;-75
2023/10/13 00:11:53;;;;;;;5.90;4.00;;;17.70;99.90;;;;;;5016193;28;20411;-75
2023/10/13 00:14:30;;;;;;;5.23;4.73;;;17.70;99.90;;;;;;5031209;28;20481;-74
2023/10/13 00:17:05;;;;;;;7.37;4.00;;;17.70;99.90;;;;;;5015731;28;20501;-75
2023/10/13 00:19:46;;;;;;;5.13;4.60;;;17.70;99.90;;;;;;5015682;28;20486;-75
2023/10/13 00:22:19;;;;;;;5.97;4.00;;;17.60;99.90;;;;;;5015867;28;20438;-74
2023/10/13 00:24:45;;;;;;;5.83;4.67;;;17.60;99.90;;;;;;5014546;28;20399;-75
2023/10/13 00:27:33;;;;;;;5.20;4.70;;;17.60;99.90;;;;;;5015648;28;20949;-75
2023/10/13 00:30:22;;;;;;;5.90;4.77;;;17.60;99.90;;;;;;5015889;28;20495;-76
2023/10/13 00:32:56;;;;;;;4.63;4.10;;;17.60;99.90;;;;;;5015824;28;20986;-76
2023/10/13 00:35:35;;;;;;;7.50;5.10;;;17.60;99.90;;;;;;5015660;28;20766;-75
2023/10/13 00:38:12;;;;;;;5.23;4.40;;;17.50;99.90;;;;;;5014460;28;20489;-76
2023/10/13 00:48:32;;;;;;;7.63;4.97;;;17.60;99.90;;;;;;5015702;28;20406;-75
2023/10/13 00:51:03;;;;;;;13.23;6.33;;;17.60;99.90;;;;;;5015134;28;20419;-75
2023/10/13 00:53:33;;;;;;;4.90;4.50;;;17.50;99.90;;;;;;5015572;28;20431;-75
2023/10/13 00:56:08;;;;;;;9.73;5.10;;;17.50;99.90;;;;;;5015340;28;20477;-75
2023/10/13 00:58:34;;;;;;;8.17;4.97;;;17.50;99.90;;;;;;5015302;28;20469;-75
2023/10/13 01:01:17;;;;;;;6.10;4.70;;;17.50;99.90;;;;;;5013856;28;20450;-76
2023/10/13 01:03:59;;;;;;;5.33;4.50;;;17.60;99.90;;;;;;4997705;28;20466;-76
2023/10/13 01:06:27;;;;;;;7.37;5.67;;;17.60;99.90;;;;;;5015103;28;20427;-76
2023/10/13 01:09:13;;;;;;;6.83;4.47;;;17.60;99.90;;;;;;5014318;28;20485;-75
2023/10/13 01:11:42;;;;;;;5.83;5.30;;;17.60;99.90;;;;;;5015191;28;20430;-75
2023/10/13 01:14:08;;;;;;;7.60;5.53;;;17.60;99.90;;;;;;5014741;28;20415;-75
2023/10/13 01:16:35;;;;;;;7.73;4.93;;;17.60;99.90;;;;;;5014826;28;20431;-75
2023/10/13 01:19:04;;;;;;;6.13;4.60;;;17.60;99.90;;;;;;5014567;28;20442;-74
2023/10/13 01:21:32;;;;;;;7.50;4.87;;;17.70;99.90;;;;;;5014633;28;20450;-74
2023/10/13 01:23:58;;;;;;;8.10;4.80;;;17.70;99.90;;;;;;5013592;28;20419;-74
2023/10/13 01:26:24;;;;;;;6.10;5.50;;;17.70;99.90;;;;;;5014578;28;20459;-75
2023/10/13 01:28:50;;;;;;;6.00;5.50;;;17.70;99.90;;;;;;4997175;28;20176;-73
2023/10/13 01:31:49;;;;;;;4.90;4.50;;;17.70;99.90;;;;;;5014539;28;20833;-75
2023/10/13 01:34:08;;;;;;;6.37;4.23;;;17.70;99.90;;;;;;5011545;28;20414;-74
2023/10/13 01:36:36;;;;;;;4.97;4.47;;;17.70;99.90;;;;;;4996802;28;20810;-74
2023/10/13 01:39:01;;;;;;;7.47;4.80;;;17.70;99.90;;;;;;5013569;28;20175;-74
2023/10/13 01:41:27;;;;;;;6.93;4.27;;;17.80;99.90;;;;;;5014389;28;20965;-74
2023/10/13 01:43:52;;;;;;;5.33;4.83;;;17.80;99.90;;;;;;5014355;28;20521;-74
2023/10/13 01:46:21;;;;;;;5.67;4.10;;;17.80;99.90;;;;;;5014598;28;20180;-74
2023/10/13 01:48:47;;;;;;;5.80;4.57;;;17.80;99.90;;;;;;5013340;28;20537;-74
2023/10/13 01:51:13;;;;;;;5.83;4.57;;;17.80;99.90;;;;;;5010834;28;20419;-74
2023/10/13 01:53:41;;;;;;;4.67;4.27;;;17.90;99.90;;;;;;5014216;28;20169;-74
2023/10/13 01:56:11;;;;;;;5.60;5.10;;;17.90;99.90;;;;;;5014009;28;20434;-75
2023/10/13 01:58:43;;;;;;;5.17;4.40;;;17.90;99.90;;;;;;5012747;28;20423;-75
2023/10/13 02:01:10;;;;;;;4.00;3.70;;;17.90;99.90;;;;;;5014077;28;20453;-75
2023/10/13 02:03:42;;;;;;;8.00;5.53;;;17.90;99.90;;;;;;5014000;28;20414;-75
2023/10/13 02:06:10;;;;;;;7.87;6.13;;;17.80;99.90;;;;;;5028993;28;20461;-74
2023/10/13 02:08:43;;;;;;;4.80;3.93;;;17.80;99.90;;;;;;5013936;28;20406;-73
2023/10/13 02:11:09;;;;;;;8.03;5.20;;;17.80;99.90;;;;;;5012743;28;20409;-74
2023/10/13 02:13:41;;;;;;;14.07;6.00;;;17.80;99.90;;;;;;5013977;28;20399;-74
2023/10/13 02:16:07;;;;;;;8.30;5.90;;;17.70;99.90;;;;;;5012154;28;20447;-75
2023/10/13 02:18:42;;;;;;;5.80;5.00;;;17.70;99.90;;;;;;5013632;28;20437;-74
2023/10/13 02:21:14;;;;;;;7.77;6.13;;;17.60;99.90;;;;;;5013766;28;20223;-74
2023/10/13 02:23:45;;;;;;;6.00;5.07;;;17.60;99.90;;;;;;5013771;28;20891;-74
2023/10/13 02:26:14;;;;;;;6.87;5.87;;;17.60;99.90;;;;;;5012257;28;20439;-74
2023/10/13 02:28:40;;;;;;;9.50;6.03;;;17.70;99.90;;;;;;5013685;28;20406;-74
2023/10/13 02:31:07;;;;;;;7.13;5.20;;;17.70;99.90;;;;;;5029058;28;20856;-74
2023/10/13 02:33:34;;;;;;;5.90;5.10;;;17.70;99.90;;;;;;5012479;28;20501;-74
2023/10/13 02:36:04;;;;;;;5.53;4.93;;;17.70;99.90;;;;;;5013372;28;20430;-74
2023/10/13 02:41:18;;;;;;;7.00;4.93;;;17.70;99.90;;;;;;5013279;28;20461;-75
2023/10/13 02:43:44;;;;;;;6.23;4.87;;;17.80;99.90;;;;;;5013281;28;20403;-74
2023/10/13 02:46:09;;;;;;;6.17;5.47;;;17.80;99.90;;;;;;5013250;28;20432;-74
2023/10/13 02:48:42;;;;;;;11.10;5.90;;;17.80;99.90;;;;;;5013289;28;20245;-74
2023/10/13 02:51:18;;;;;;;5.63;5.07;;;17.80;99.90;;;;;;5005872;28;20176;-75
2023/10/13 02:53:50;;;;;;;7.43;5.00;;;17.80;99.90;;;;;;5010719;28;20958;-75
2023/10/13 02:56:22;;;;;;;5.70;4.60;;;17.80;99.90;;;;;;5013090;28;20434;-75
2023/10/13 02:58:56;;;;;;;7.80;4.17;;;17.80;99.90;;;;;;5013173;28;20902;-74
2023/10/13 03:01:27;;;;;;;11.23;6.17;;;17.90;99.90;;;;;;5013069;28;20540;-76
2023/10/13 03:03:58;;;;;;;8.80;5.43;;;17.90;99.90;;;;;;5013455;28;20400;-75
2023/10/13 03:06:31;;;;;;;9.20;5.50;;;17.90;99.90;;;;;;5011834;28;21029;-75
2023/10/13 03:09:00;;;;;;;6.70;5.00;;;18.00;99.90;;;;;;5012962;28;20457;-75
2023/10/13 03:11:25;;;;;;;8.23;5.53;;;18.00;99.90;;;;;;5013211;28;20407;-74
2023/10/13 03:13:52;;;;;;;5.87;5.30;;;18.00;99.90;;;;;;5012875;28;20407;-74
2023/10/13 03:16:19;;;;;;;12.07;6.40;;;18.00;99.90;;;;;;5027999;28;20282;-75
2023/10/13 03:18:53;;;;;;;7.10;6.33;;;18.00;99.90;;;;;;5027704;28;20411;-75
2023/10/13 03:21:29;;;;;;;6.80;5.33;;;17.80;99.90;;;;;;5012999;28;20956;-74
2023/10/13 03:23:56;;;;;;;7.30;5.10;;;17.80;99.90;;;;;;5013005;28;20406;-75
2023/10/13 03:26:22;;;;;;;6.83;5.67;;;17.80;99.90;;;;;;5013025;28;21004;-75
2023/10/13 03:28:52;;;;;;;6.90;6.10;;;17.80;99.90;;;;;;5012750;28;20407;-75
2023/10/13 03:31:19;;;;;;;6.10;4.87;;;17.70;99.90;;;;;;5012724;28;20172;-75
2023/10/13 03:33:46;;;;;;;6.77;6.00;;;17.80;99.90;;;;;;5015574;28;20411;-75
2023/10/13 03:36:35;;;;;;;9.13;5.70;;;17.80;99.90;;;;;;5016550;28;20504;-75
2023/10/13 03:38:58;;;;;;;7.93;6.03;;;17.80;99.90;;;;;;5016448;28;20509;-75
2023/10/13 03:41:30;;;;;;;7.10;5.20;;;17.70;99.90;;;;;;5016908;28;20538;-75
2023/10/13 03:44:07;;;;;;;9.60;6.43;;;17.70;99.90;;;;;;5032010;28;20172;-75
2023/10/13 03:46:36;;;;;;;10.87;6.70;;;17.70;99.90;;;;;;5031903;28;20459;-75
2023/10/13 03:49:02;;;;;;;7.43;6.53;;;17.70;99.90;;;;;;5015454;28;20399;-75
2023/10/13 03:51:31;;;;;;;7.60;6.50;;;17.60;99.90;;;;;;5014046;28;20419;-75
2023/10/13 03:53:58;;;;;;;8.93;7.30;;;17.60;99.90;;;;;;5014299;28;20517;-75
2023/10/13 03:56:28;;;;;;;7.60;6.80;;;17.60;99.90;;;;;;5017958;28;20449;-75
2023/10/13 03:59:01;;;;;;;8.60;5.20;;;17.60;99.90;;;;;;5021833;28;20423;-76
2023/10/13 04:01:43;;;;;;;9.47;6.13;;;17.70;99.90;;;;;;4998795;28;20462;-76
2023/10/13 04:04:11;;;;;;;6.57;4.80;;;17.70;99.90;;;;;;5016458;28;20774;-76
2023/10/13 04:17:29;;;;;;;6.87;6.10;;;17.80;99.90;;;;;;5016214;28;20514;-76
2023/10/13 04:36:16;;;;;;;6.20;5.60;;;17.80;99.90;;;;;;4993209;28;21008;-75
2023/10/13 04:39:09;;;;;;;7.90;6.70;;;17.70;99.90;;;;;;5010942;28;20428;-75
2023/10/13 04:55:09;;;;;;;9.20;7.40;;;17.50;99.90;;;;;;5011709;28;20482;-74
2023/10/13 04:57:46;;;;;;;11.73;8.00;;;17.50;99.90;;;;;;5001400;28;20813;-74
2023/10/13 05:44:32;;;;;;;8.43;7.37;;;17.50;99.90;;;;;;5014992;28;20505;-75
2023/10/13 05:50:05;;;;;;;10.03;6.67;;;18.30;99.90;;;;;;5013897;28;20464;-75
2023/10/13 05:52:06;;;;;;;9.17;5.63;;;18.30;99.90;;;;;;5006712;28;20922;-75
2023/10/13 06:30:12;;;;;;;10.80;6.10;;;18.60;99.90;;;;;;5013658;28;20415;-74
2023/10/13 06:32:39;;;;;;;13.30;8.00;;;18.60;99.90;;;;;;5013588;28;20408;-74
2023/10/13 06:35:07;;;;;;;14.73;11.67;;;18.50;99.90;;;;;;5013710;28;20718;-74
2023/10/13 06:37:34;;;;;;;8.90;7.53;;;18.50;99.90;;;;;;5011887;28;20470;-74
2023/10/13 06:40:33;;;;;;;10.80;8.90;;;18.50;99.90;;;;;;5013360;28;20404;-74
2023/10/13 06:43:32;;;;;;;16.03;8.63;;;18.60;99.90;;;;;;5013303;28;20490;-75
2023/10/13 06:46:02;;;;;;;8.70;6.60;;;18.60;99.90;;;;;;5010929;28;20965;-75
2023/10/13 06:48:33;;;;;;;9.00;6.90;;;18.70;99.90;;;;;;5012212;28;20902;-75
2023/10/13 06:51:03;;;;;;;11.57;9.03;;;18.70;99.90;;;;;;5005833;28;20423;-76
2023/10/13 06:53:29;;;;;;;9.53;7.77;;;18.70;99.90;;;;;;5012922;28;20407;-76
2023/10/13 06:55:58;;;;;;;9.10;7.20;;;18.70;99.90;;;;;;4995788;28;20806;-75
2023/10/13 06:58:26;;;;;;;15.47;7.93;;;18.80;99.90;;;;;;4991041;28;20180;-75
2023/10/13 07:00:55;;;;;;;8.93;6.70;;;18.80;99.90;;;;;;5002122;28;20462;-75
2023/10/13 07:03:22;;;;;;;10.37;7.50;;;18.70;99.90;;;;;;5004685;28;20426;-75
2023/10/13 07:05:48;;;;;;;10.47;6.63;;;18.80;99.90;;;;;;5012397;28;20965;-75
2023/10/13 07:08:19;;;;;;;10.83;7.20;;;18.80;99.90;;;;;;5013045;28;20415;-75
2023/10/13 07:11:02;;;;;;;9.63;6.87;;;18.70;99.90;;;;;;5005028;28;20230;-75
2023/10/13 07:13:39;;;;;;;24.10;12.93;;;18.90;99.90;;;;;;5013347;28;20764;-75
2023/10/13 07:16:13;;;;;;;11.27;7.93;;;19.00;99.90;;;;;;5028327;28;20438;-75
2023/10/13 07:18:52;;;;;;;9.00;6.87;;;19.10;99.90;;;;;;5012928;28;20498;-75
2023/10/13 07:21:29;;;;;;;8.37;5.43;;;19.20;99.90;;;;;;5028253;28;20463;-75
2023/10/13 07:24:08;;;;;;;8.10;6.37;;;19.30;99.90;;;;;;5009527;28;20458;-76
2023/10/13 07:26:34;;;;;;;7.77;5.53;;;19.40;99.90;;;;;;4994194;28;20438;-69
2023/10/13 07:29:00;;;;;;;8.57;6.33;;;19.50;99.90;;;;;;5011824;28;20467;-70
2023/10/13 07:31:27;;;;;;;6.53;5.93;;;19.60;99.90;;;;;;5012184;28;20831;-69
2023/10/13 07:33:54;;;;;;;7.03;5.53;;;19.70;99.90;;;;;;5012155;28;20403;-69
2023/10/13 07:38:59;;;;;;;8.77;4.90;;;19.90;99.90;;;;;;5012534;28;20498;-70
2023/10/13 07:41:30;;;;;;;6.07;5.20;;;20.00;99.90;;;;;;5027047;28;20463;-71
2023/10/13 07:43:57;;;;;;;6.67;5.70;;;20.00;99.90;;;;;;5011971;28;20474;-71
2023/10/13 07:46:29;;;;;;;6.77;5.40;;;20.00;99.90;;;;;;5011846;28;20428;-70
2023/10/13 07:49:08;;;;;;;6.47;4.73;;;20.10;99.90;;;;;;5011886;28;20399;-71
2023/10/13 07:51:44;;;;;;;6.87;4.67;;;20.30;99.90;;;;;;5008988;28;20450;-70
2023/10/13 07:54:22;;;;;;;10.20;4.87;;;20.40;99.90;;;;;;5011695;28;20445;-71
2023/10/13 07:56:48;;;;;;;6.23;5.20;;;20.50;99.90;;;;;;4994062;28;20451;-72
2023/10/13 07:59:21;;;;;;;13.93;5.93;;;20.60;99.90;;;;;;5011726;28;20430;-71
2023/10/13 08:01:47;;;;;;;5.00;4.20;;;20.70;99.90;;;;;;5011848;28;20461;-71
2023/10/13 08:04:14;;;;;;;7.80;4.70;;;20.90;99.90;;;;;;5012262;28;20399;-72
2023/10/13 08:06:45;;;;;;;5.90;4.73;;;21.00;99.90;;;;;;5012440;28;20211;-72
2023/10/13 08:11:56;;;;;;;11.50;4.70;;;21.30;99.90;;;;;;5012343;28;20449;-72
2023/10/13 08:14:22;;;;;;;5.87;4.30;;;21.60;99.90;;;;;;5012512;28;20414;-72
2023/10/13 08:16:59;;;;;;;9.27;4.37;;;21.70;99.90;;;;;;5012722;28;20435;-71
2023/10/13 08:19:39;;;;;;;8.30;4.00;;;21.80;99.90;;;;;;5015877;28;20172;-72
2023/10/13 08:22:23;;;;;;;4.57;4.13;;;21.90;99.90;;;;;;5025240;28;20845;-71
2023/10/13 08:27:34;;;;;;;7.83;4.63;;;22.00;99.90;;;;;;5015692;28;20847;-71
2023/10/13 08:37:28;;;;;;;5.40;4.10;;;24.90;99.90;;;;;;5014969;28;20996;-71
2023/10/13 08:48:07;;;;;;;14.13;3.73;;;25.40;99.90;;;;;;5014868;28;20407;-71
2023/10/13 08:56:14;;;;;;;7.67;4.63;;;25.10;99.90;;;;;;5014852;28;20766;-70
2023/10/13 09:04:23;;;;;;;13.13;4.40;;;24.80;99.90;;;;;;5014908;28;20408;-71
2023/10/13 09:12:13;;;;;;;4.80;3.80;;;28.90;99.90;;;;;;5014969;28;20411;-71
2023/10/13 09:14:54;;;;;;;5.73;4.60;;;30.20;97.40;;;;;;5014434;28;20414;-71
2023/10/13 09:19:47;;;;;;;5.93;3.97;;;32.70;75.50;;;;;;5014100;28;20906;-72
2023/10/13 09:22:27;;;;;;;5.53;4.70;;;33.00;62.50;;;;;;5014171;28;20200;-71
2023/10/13 09:25:00;;;;;;;7.53;5.67;;;32.60;59.00;;;;;;5014243;28;20403;-71
2023/10/13 09:27:37;;;;;;;11.57;4.87;;;32.00;60.50;;;;;;5014090;28;20427;-71
2023/10/13 09:30:18;;;;;;;14.30;5.13;;;32.10;60.00;;;;;;5013207;28;20392;-71
2023/10/13 09:32:46;;;;;;;8.80;5.43;;;32.40;58.90;;;;;;5013984;28;20498;-71
2023/10/13 09:35:16;;;;;;;4.77;4.37;;;32.60;57.20;;;;;;5014089;28;20916;-71
2023/10/13 09:37:46;;;;;;;7.67;4.77;;;32.80;55.90;;;;;;5013946;28;20458;-71
2023/10/13 09:40:27;;;;;;;12.53;5.50;;;33.20;54.90;;;;;;5013721;28;20912;-71
2023/10/13 09:42:55;;;;;;;6.13;5.40;;;32.90;53.60;;;;;;5013748;28;20458;-71
2023/10/13 09:45:27;;;;;;;6.33;5.60;;;33.40;54.90;;;;;;5013718;28;20713;-71
2023/10/13 09:47:57;;;;;;;7.37;5.20;;;33.70;52.30;;;;;;5013733;28;20411;-71
2023/10/13 09:50:26;;;;;;;8.00;6.03;;;34.00;50.60;;;;;;5013997;28;20442;-71
2023/10/13 09:52:53;;;;;;;5.70;5.20;;;34.40;50.10;;;;;;5013599;28;20411;-71
2023/10/13 09:55:26;;;;;;;7.03;5.10;;;34.60;49.60;;;;;;5013613;28;20469;-71
2023/10/13 09:57:59;;;;;;;6.67;5.10;;;35.10;48.60;;;;;;5013482;28;20411;-71
2023/10/13 10:00:48;;;;;;;7.63;5.13;;;35.80;47.10;;;;;;5028647;28;20423;-71
2023/10/13 10:06:27;;;;;;;7.00;4.83;;;36.90;45.30;;;;;;4971941;28;20432;-71
2023/10/13 10:09:08;;;;;;;5.23;4.73;;;36.00;43.40;;;;;;5008009;28;20415;-71
2023/10/13 10:11:48;;;;;;;7.67;5.30;;;35.10;44.60;;;;;;5013185;28;20494;-71
2023/10/13 10:14:42;;;;;;;6.43;4.73;;;35.50;46.00;;;;;;5013162;28;20886;-71
2023/10/13 10:17:09;;;;;;;5.60;4.77;;;36.90;45.50;;;;;;5013047;28;20869;-71
2023/10/13 10:19:57;;;;;;;9.30;5.27;;;37.60;42.20;;;;;;5013020;28;20415;-71
2023/10/13 10:22:33;;;;;;;6.27;5.63;;;37.40;42.20;;;;;;5013027;28;20462;-71
2023/10/13 10:25:25;;;;;;;7.20;5.50;;;37.90;40.60;;;;;;5013238;28;20490;-71
2023/10/13 10:28:01;;;;;;;9.17;6.53;;;38.90;40.40;;;;;;5012886;28;20462;-71
2023/10/13 10:30:28;;;;;;;7.03;4.57;;;39.60;39.70;;;;;;5013090;28;20410;-71
2023/10/13 10:33:01;;;;;;;7.90;5.30;;;39.80;38.90;;;;;;5013107;28;20757;-72
2023/10/13 10:35:32;;;;;;;8.10;5.37;;;39.30;38.30;;;;;;5013074;28;20404;-71
2023/10/13 10:38:11;;;;;;;7.67;4.80;;;39.40;38.60;;;;;;5012921;28;20522;-72
2023/10/13 10:40:51;;;;;;;9.43;5.33;;;39.10;38.40;;;;;;5012947;28;20414;-72
2023/10/13 10:43:18;;;;;;;12.63;4.97;;;39.80;37.20;;;;;;5012910;28;20406;-71
2023/10/13 10:45:50;;;;;;;8.23;5.40;;;40.30;38.10;;;;;;5012942;28;20465;-70
2023/10/13 10:48:17;;;;;;;6.03;4.80;;;40.40;36.30;;;;;;5012736;28;20579;-72
2023/10/13 10:50:53;;;;;;;7.73;5.93;;;40.10;36.20;;;;;;5012831;28;20487;-71
2023/10/13 10:53:21;;;;;;;7.73;5.07;;;40.20;37.10;;;;;;5012863;28;20796;-71
2023/10/13 10:55:47;;;;;;;8.90;4.90;;;40.20;36.10;;;;;;5012647;28;20565;-71
2023/10/13 10:58:28;;;;;;;6.43;5.30;;;40.70;34.80;;;;;;5005894;28;20846;-71
2023/10/13 11:01:19;;;;;;;5.40;4.90;;;40.00;34.20;;;;;;5009860;28;20647;-67
2023/10/13 11:04:07;;;;;;;6.27;5.63;;;40.40;34.80;;;;;;5006930;28;20407;-68
2023/10/13 11:06:41;;;;;;;10.00;4.83;;;41.00;34.40;;;;;;5011983;28;20450;-68
2023/10/13 11:11:52;;;;;;;5.77;5.20;;;40.50;33.30;;;;;;5009344;28;20435;-68
2023/10/13 11:14:27;;;;;;;8.73;5.67;;;38.40;34.10;;;;;;4994551;28;20921;-68
2023/10/13 11:16:54;;;;;;;7.33;5.73;;;36.40;36.30;;;;;;5012166;28;21127;-73
2023/10/13 11:19:36;;;;;;;9.10;5.37;;;34.20;38.30;;;;;;5012795;28;20422;-71
2023/10/13 11:22:10;;;;;;;7.10;5.50;;;32.50;41.60;;;;;;5013205;28;20819;-71
2023/10/13 11:24:42;;;;;;;7.50;4.80;;;31.10;44.10;;;;;;5013315;28;20909;-72
2023/10/13 11:27:37;;;;;;;7.67;5.03;;;29.80;45.80;;;;;;5012652;28;20514;-71
2023/10/13 11:30:05;;;;;;;5.87;4.60;;;29.00;48.00;;;;;;5006209;28;20962;-71
2023/10/13 11:32:31;;;;;;;8.43;4.93;;;28.30;50.10;;;;;;5013095;28;20928;-71
2023/10/13 11:34:56;;;;;;;6.60;4.60;;;27.90;51.30;;;;;;5012930;28;20505;-71
2023/10/13 11:37:43;;;;;;;7.40;4.90;;;27.70;52.40;;;;;;5019188;28;20663;-71
2023/10/13 11:40:12;;;;;;;5.77;4.60;;;27.40;53.50;;;;;;5012784;28;20175;-70
2023/10/13 11:42:43;;;;;;;6.00;4.77;;;27.30;54.90;;;;;;5012685;28;20447;-71
2023/10/13 11:48:00;;;;;;;11.13;5.37;;;27.20;55.50;;;;;;5013033;28;20422;-69
2023/10/13 11:50:33;;;;;;;6.23;4.97;;;27.20;56.00;;;;;;5004561;28;20410;-70
2023/10/13 11:53:00;;;;;;;9.70;4.90;;;27.20;57.00;;;;;;5015574;28;20434;-70
2023/10/13 11:55:25;;;;;;;8.20;4.50;;;27.10;57.10;;;;;;5016549;28;20411;-71
2023/10/13 11:57:51;;;;;;;6.63;5.00;;;27.00;58.00;;;;;;5013637;28;20854;-72
2023/10/13 12:00:50;;;;;;;5.20;4.20;;;26.80;58.90;;;;;;5016303;28;20172;-72
2023/10/13 12:08:49;;;;;;;11.87;3.90;;;26.10;64.50;;;;;;5010003;28;20486;-71
2023/10/13 12:11:33;;;;;;;8.43;4.57;;;26.00;67.10;;;;;;5015926;28;20410;-71
2023/10/13 12:14:11;;;;;;;5.63;4.87;;;25.80;68.10;;;;;;5015953;28;20421;-71
2023/10/13 12:16:36;;;;;;;13.20;4.33;;;25.70;75.10;;;;;;5015879;28;20913;-71
2023/10/13 12:19:02;;;;;;;7.77;4.50;;;25.50;80.40;;;;;;5016034;28;20430;-70
2023/10/13 12:21:29;;;;;;;4.63;3.80;;;25.60;83.20;;;;;;5016263;28;20211;-71
2023/10/13 12:23:55;;;;;;;7.63;4.87;;;25.50;86.90;;;;;;5016351;28;20168;-70
2023/10/13 12:26:21;;;;;;;12.87;4.23;;;25.40;89.70;;;;;;5016207;28;20419;-71
2023/10/13 12:28:53;;;;;;;6.30;4.30;;;25.40;91.80;;;;;;5015872;28;20946;-71
2023/10/13 12:31:26;;;;;;;9.57;4.03;;;25.40;91.50;;;;;;5031591;28;20579;-71
2023/10/13 12:33:52;;;;;;;7.57;5.60;;;25.30;90.40;;;;;;5016269;28;20403;-71
2023/10/13 12:52:16;;;;;;;8.40;4.87;;;25.30;88.70;;;;;;5015720;28;20415;-72
2023/10/13 12:57:26;;;;;;;6.10;3.67;;;25.20;90.20;;;;;;5015188;28;20434;-71
2023/10/13 12:59:53;;;;;;;7.23;4.07;;;25.20;90.20;;;;;;5011099;28;20426;-71
2023/10/13 13:02:24;;;;;;;7.43;5.57;;;25.40;90.70;;;;;;5013754;28;20455;-71
2023/10/13 13:05:06;;;;;;;12.13;5.60;;;25.40;89.50;;;;;;5020991;28;20434;-71
2023/10/13 13:07:43;;;;;;;6.70;4.60;;;25.50;90.30;;;;;;5015113;28;20423;-71
2023/10/13 13:10:13;;;;;;;10.50;5.10;;;25.60;90.30;;;;;;5007747;28;20424;-69
2023/10/13 13:12:39;;;;;;;7.60;4.50;;;25.50;85.10;;;;;;5014276;28;20435;-66
2023/10/13 13:15:08;;;;;;;9.23;4.70;;;25.50;86.70;;;;;;5014105;28;20518;-70
2023/10/13 13:17:38;;;;;;;6.50;4.27;;;25.50;87.00;;;;;;5006708;28;20188;-71
2023/10/13 13:20:11;;;;;;;5.93;4.80;;;25.30;86.40;;;;;;4996566;28;20437;-72
2023/10/13 13:22:38;;;;;;;11.57;6.10;;;25.20;88.70;;;;;;4998861;28;20447;-72
2023/10/13 13:25:08;;;;;;;6.80;4.33;;;25.20;90.20;;;;;;5014291;28;20433;-70
2023/10/13 13:27:34;;;;;;;5.67;3.57;;;25.10;91.40;;;;;;5014307;28;20494;-73
2023/10/13 13:30:00;;;;;;;8.90;4.70;;;25.10;91.20;;;;;;5014135;28;20499;-70
2023/10/13 13:32:28;;;;;;;9.70;4.50;;;25.10;91.90;;;;;;5014394;28;20176;-70
2023/10/13 13:35:04;;;;;;;12.50;4.13;;;25.00;94.60;;;;;;5013969;28;20914;-70
2023/10/13 13:37:33;;;;;;;12.17;4.10;;;24.70;96.90;;;;;;5012352;28;20516;-70
2023/10/13 13:40:21;;;;;;;9.77;3.80;;;24.40;98.70;;;;;;5012386;28;20411;-71
2023/10/13 13:42:47;;;;;;;8.50;3.90;;;24.10;99.90;;;;;;5013895;28;20621;-72
2023/10/13 13:45:21;;;;;;;6.93;3.70;;;24.00;99.90;;;;;;5012107;28;20509;-72
2023/10/13 13:47:53;;;;;;;6.93;4.50;;;24.00;99.90;;;;;;5013718;28;20172;-71
2023/10/13 13:50:26;;;;;;;8.47;4.07;;;23.90;99.90;;;;;;5013474;28;20395;-72
2023/10/13 13:52:55;;;;;;;7.83;4.60;;;23.90;99.90;;;;;;5012485;28;20944;-71
2023/10/13 13:55:28;;;;;;;7.80;5.87;;;24.00;99.90;;;;;;5013721;28;20411;-71
2023/10/13 13:57:56;;;;;;;15.03;3.77;;;24.00;99.90;;;;;;5018060;28;20968;-71
2023/10/13 14:00:37;;;;;;;9.30;4.10;;;24.00;99.90;;;;;;5013363;28;20422;-72
2023/10/13 14:03:12;;;;;;;7.40;4.10;;;24.10;99.90;;;;;;5013411;28;20457;-71
2023/10/13 14:05:45;;;;;;;10.20;4.60;;;24.10;98.60;;;;;;5006598;28;20785;-71
2023/10/13 14:08:16;;;;;;;8.57;4.77;;;24.20;99.40;;;;;;5008863;28;20943;-70
2023/10/13 14:13:48;;;;;;;9.77;4.37;;;24.50;98.50;;;;;;5012758;28;20410;-72
2023/10/13 14:16:16;;;;;;;15.23;4.70;;;24.60;97.40;;;;;;5012853;28;20435;-71
2023/10/13 14:18:46;;;;;;;11.27;4.47;;;24.50;96.40;;;;;;5013209;28;20538;-74
2023/10/13 14:21:16;;;;;;;8.50;4.67;;;24.40;96.80;;;;;;5011965;28;20803;-73
2023/10/13 14:23:44;;;;;;;8.20;4.17;;;24.40;99.30;;;;;;5028492;28;20900;-72
2023/10/13 14:26:26;;;;;;;6.67;4.20;;;24.30;97.10;;;;;;5012954;28;20797;-71
2023/10/13 14:29:01;;;;;;;8.83;4.13;;;24.10;98.40;;;;;;5013133;28;20486;-72
2023/10/13 14:31:31;;;;;;;14.00;4.90;;;24.10;99.10;;;;;;5013294;28;20406;-72
2023/10/13 14:33:57;;;;;;;7.10;3.70;;;24.10;98.20;;;;;;5013279;28;20485;-71
2023/10/13 14:36:23;;;;;;;6.67;4.27;;;24.10;99.20;;;;;;5012663;28;20447;-71
2023/10/13 14:38:49;;;;;;;9.97;4.30;;;24.10;99.30;;;;;;5012805;28;20414;-72
2023/10/13 14:41:18;;;;;;;7.43;4.33;;;24.10;99.90;;;;;;5012962;28;20455;-71
2023/10/13 14:43:47;;;;;;;8.23;4.20;;;24.00;99.90;;;;;;5013231;28;20164;-71
2023/10/13 14:46:14;;;;;;;7.60;4.27;;;24.00;99.90;;;;;;5013286;28;20427;-71
2023/10/13 14:48:40;;;;;;;13.13;4.40;;;24.00;99.90;;;;;;5011618;28;20426;-71
2023/10/13 14:51:18;;;;;;;6.70;5.00;;;23.80;99.90;;;;;;5012902;28;20411;-72
2023/10/13 14:53:44;;;;;;;9.40;4.23;;;23.80;99.90;;;;;;5028319;28;20195;-72
2023/10/13 14:56:14;;;;;;;6.20;4.40;;;23.80;99.90;;;;;;5012783;28;20427;-72
2023/10/13 14:58:42;;;;;;;12.17;4.40;;;23.70;99.90;;;;;;5012651;28;20407;-71
2023/10/13 15:01:15;;;;;;;5.17;3.50;;;23.60;99.90;;;;;;5012861;28;20874;-72
2023/10/13 15:03:44;;;;;;;6.17;3.47;;;23.60;99.90;;;;;;5012675;28;20431;-71
2023/10/13 15:06:28;;;;;;;8.17;4.10;;;23.60;99.90;;;;;;5011192;28;20429;-72
2023/10/13 15:08:56;;;;;;;10.83;5.83;;;23.50;99.90;;;;;;5012546;28;20409;-72
2023/10/13 15:11:26;;;;;;;6.67;4.00;;;23.50;99.90;;;;;;5012822;28;20494;-72
2023/10/13 15:13:52;;;;;;;6.23;4.10;;;23.50;99.90;;;;;;5028019;28;20415;-72
2023/10/13 15:16:23;;;;;;;10.60;4.27;;;23.40;99.90;;;;;;5012291;28;20485;-72
2023/10/13 15:18:53;;;;;;;6.20;4.20;;;23.40;99.90;;;;;;5027797;28;20945;-72
2023/10/13 15:21:21;;;;;;;5.27;4.13;;;23.40;99.90;;;;;;5012486;28;20457;-72
2023/10/13 15:23:47;;;;;;;9.00;4.57;;;23.40;99.90;;;;;;5012519;28;20414;-72
2023/10/13 15:26:14;;;;;;;7.53;4.90;;;23.30;99.90;;;;;;5011672;28;20432;-72
2023/10/13 15:28:49;;;;;;;5.90;4.20;;;23.30;99.90;;;;;;5012196;28;20243;-72
2023/10/13 15:34:06;;;;;;;5.87;3.97;;;23.20;99.90;;;;;;5012611;28;20410;-70
2023/10/13 15:36:34;;;;;;;4.63;2.83;;;23.20;99.90;;;;;;5012103;28;20830;-70
2023/10/13 15:39:00;;;;;;;5.70;3.77;;;23.20;99.90;;;;;;5027359;28;20426;-70
2023/10/13 15:41:28;;;;;;;5.83;3.83;;;23.10;99.90;;;;;;5012124;28;20819;-70
2023/10/13 15:43:54;;;;;;;4.17;3.50;;;23.10;99.90;;;;;;5012241;28;20179;-70
2023/10/13 15:46:22;;;;;;;6.60;5.00;;;23.10;99.90;;;;;;5010929;28;20818;-70
2023/10/13 15:48:52;;;;;;;6.60;4.67;;;23.10;99.90;;;;;;5012178;28;20906;-69
2023/10/13 15:51:18;;;;;;;4.63;4.20;;;23.00;99.90;;;;;;5012192;28;20461;-71
2023/10/13 15:53:47;;;;;;;6.70;4.00;;;22.90;99.90;;;;;;5012100;28;20431;-71
2023/10/13 15:56:14;;;;;;;6.70;3.77;;;22.90;99.90;;;;;;5012181;28;20884;-71
2023/10/13 15:58:46;;;;;;;8.33;4.70;;;22.90;99.90;;;;;;5011937;28;20407;-72
2023/10/13 16:01:15;;;;;;;8.67;4.70;;;22.90;99.90;;;;;;5012086;28;20538;-72
2023/10/13 16:03:49;;;;;;;7.63;3.83;;;22.80;99.90;;;;;;5027143;28;20480;-71
2023/10/13 16:06:18;;;;;;;6.93;3.90;;;22.80;99.90;;;;;;5010842;28;20458;-71
2023/10/13 16:08:44;;;;;;;7.93;4.17;;;22.70;99.90;;;;;;5011832;28;20431;-71
2023/10/13 16:11:14;;;;;;;8.03;3.70;;;22.70;99.90;;;;;;5012042;28;20502;-72
2023/10/13 16:13:44;;;;;;;7.27;4.07;;;22.70;99.90;;;;;;5011876;28;20596;-73
2023/10/13 16:16:23;;;;;;;6.10;4.03;;;22.70;99.90;;;;;;5011883;28;20806;-73
2023/10/13 16:18:49;;;;;;;4.87;4.00;;;22.70;99.90;;;;;;5012034;28;20453;-72
2023/10/13 16:21:15;;;;;;;5.67;4.20;;;22.60;99.90;;;;;;5011719;28;20501;-73
2023/10/13 16:23:41;;;;;;;9.33;4.30;;;22.70;99.90;;;;;;5027080;28;20415;-72
2023/10/13 16:26:08;;;;;;;5.47;4.00;;;22.70;99.90;;;;;;5010483;28;20270;-72
2023/10/13 16:28:38;;;;;;;7.30;3.50;;;22.70;99.90;;;;;;5026964;28;20925;-71
2023/10/13 16:31:05;;;;;;;7.47;4.23;;;22.60;99.90;;;;;;5026938;28;20411;-72
2023/10/13 16:33:32;;;;;;;6.47;3.80;;;22.60;99.90;;;;;;5012016;28;20449;-71
2023/10/13 16:35:58;;;;;;;5.40;3.77;;;22.60;99.90;;;;;;5011660;28;20503;-72
2023/10/13 16:38:24;;;;;;;7.03;3.63;;;22.60;99.90;;;;;;5013125;28;20768;-72
2023/10/13 16:40:53;;;;;;;9.30;3.57;;;22.50;99.90;;;;;;5015330;28;20407;-72
2023/10/13 16:43:19;;;;;;;4.53;3.50;;;22.50;99.90;;;;;;5015315;28;20462;-71